sensor_id;sensor_type;location;lat;lon;timestamp;P1;durP1;ratioP1;P2;durP2;ratioP2
18754;SDS011;35061;47.664;9.166;2024-01-07T00:01:04;2.40;;;1.48;;
18754;SDS011;35061;47.664;9.166;2024-01-07T00:03:36;1.85;;;1.48;;
18754;SDS011;35061;47.664;9.166;2024-01-07T00:06:04;1.98;;;1.87;;
18754;SDS011;35061;47.664;9.166;2024-01-07T00:08:32;1.70;;;1.60;;
18754;SDS011;35061;47.664;9.166;2024-01-07T00:11:00;2.00;;;1.80;;
18754;SDS011;35061;47.664;9.166;2024-01-07T00:13:30;1.90;;;1.73;;
18754;SDS011;35061;47.664;9.166;2024-01-07T00:15:58;2.37;;;1.80;;
18754;SDS011;35061;47.664;9.166;2024-01-07T00:18:26;1.23;;;1.20;;
18754;SDS011;35061;47.664;9.166;2024-01-07T00:20:55;2.20;;;1.70;;
18754;SDS011;35061;47.664;9.166;2024-01-07T00:23:23;2.17;;;1.50;;
18754;SDS011;35061;47.664;9.166;2024-01-07T00:25:51;1.50;;;1.40;;
18754;SDS011;35061;47.664;9.166;2024-01-07T00:28:18;1.50;;;1.40;;
18754;SDS011;35061;47.664;9.166;2024-01-07T00:30:49;2.03;;;1.60;;
18754;SDS011;35061;47.664;9.166;2024-01-07T00:33:17;2.20;;;1.35;;
18754;SDS011;35061;47.664;9.166;2024-01-07T00:35:45;1.27;;;1.17;;
18754;SDS011;35061;47.664;9.166;2024-01-07T00:38:13;1.40;;;1.30;;
18754;SDS011;35061;47.664;9.166;2024-01-07T00:40:44;1.48;;;1.35;;
18754;SDS011;35061;47.664;9.166;2024-01-07T00:43:12;1.62;;;1.42;;
18754;SDS011;35061;47.664;9.166;2024-01-07T00:45:40;1.23;;;1.12;;
18754;SDS011;35061;47.664;9.166;2024-01-07T00:48:11;1.52;;;1.42;;
18754;SDS011;35061;47.664;9.166;2024-01-07T00:50:40;1.80;;;1.70;;
18754;SDS011;35061;47.664;9.166;2024-01-07T00:53:08;1.92;;;1.73;;
18754;SDS011;35061;47.664;9.166;2024-01-07T00:55:36;4.28;;;2.28;;
18754;SDS011;35061;47.664;9.166;2024-01-07T00:58:04;1.60;;;1.50;;
18754;SDS011;35061;47.664;9.166;2024-01-07T01:00:32;1.67;;;1.58;;
18754;SDS011;35061;47.664;9.166;2024-01-07T01:03:00;1.52;;;1.42;;
18754;SDS011;35061;47.664;9.166;2024-01-07T01:05:28;2.03;;;1.80;;
18754;SDS011;35061;47.664;9.166;2024-01-07T01:07:56;1.80;;;1.70;;
18754;SDS011;35061;47.664;9.166;2024-01-07T01:10:24;2.42;;;2.05;;
18754;SDS011;35061;47.664;9.166;2024-01-07T01:12:53;2.15;;;1.95;;
18754;SDS011;35061;47.664;9.166;2024-01-07T01:15:21;3.00;;;2.70;;
18754;SDS011;35061;47.664;9.166;2024-01-07T01:17:49;2.35;;;2.00;;
18754;SDS011;35061;47.664;9.166;2024-01-07T01:20:17;2.65;;;1.90;;
18754;SDS011;35061;47.664;9.166;2024-01-07T01:22:45;1.80;;;1.70;;
18754;SDS011;35061;47.664;9.166;2024-01-07T01:25:13;2.00;;;1.77;;
18754;SDS011;35061;47.664;9.166;2024-01-07T01:27:41;2.85;;;2.35;;
18754;SDS011;35061;47.664;9.166;2024-01-07T01:30:10;2.72;;;2.20;;
18754;SDS011;35061;47.664;9.166;2024-01-07T01:32:38;2.28;;;2.00;;
18754;SDS011;35061;47.664;9.166;2024-01-07T01:35:07;2.87;;;2.40;;
18754;SDS011;35061;47.664;9.166;2024-01-07T01:37:35;2.55;;;2.35;;
18754;SDS011;35061;47.664;9.166;2024-01-07T01:40:03;2.55;;;1.90;;
18754;SDS011;35061;47.664;9.166;2024-01-07T01:42:32;2.90;;;2.62;;
18754;SDS011;35061;47.664;9.166;2024-01-07T01:45:00;3.33;;;2.42;;
18754;SDS011;35061;47.664;9.166;2024-01-07T01:47:29;2.80;;;2.50;;
18754;SDS011;35061;47.664;9.166;2024-01-07T01:49:58;2.72;;;2.53;;
18754;SDS011;35061;47.664;9.166;2024-01-07T01:52:26;2.87;;;2.58;;
18754;SDS011;35061;47.664;9.166;2024-01-07T01:54:55;2.70;;;2.30;;
18754;SDS011;35061;47.664;9.166;2024-01-07T01:57:24;3.08;;;2.72;;
18754;SDS011;35061;47.664;9.166;2024-01-07T01:59:56;2.58;;;2.37;;
18754;SDS011;35061;47.664;9.166;2024-01-07T02:02:30;2.97;;;2.30;;
18754;SDS011;35061;47.664;9.166;2024-01-07T02:05:02;3.10;;;2.72;;
18754;SDS011;35061;47.664;9.166;2024-01-07T02:07:31;3.10;;;2.80;;
18754;SDS011;35061;47.664;9.166;2024-01-07T02:09:59;6.37;;;2.70;;
18754;SDS011;35061;47.664;9.166;2024-01-07T02:12:27;4.32;;;3.47;;
18754;SDS011;35061;47.664;9.166;2024-01-07T02:14:55;3.50;;;3.10;;
18754;SDS011;35061;47.664;9.166;2024-01-07T02:17:23;3.20;;;2.72;;
18754;SDS011;35061;47.664;9.166;2024-01-07T02:19:51;2.85;;;2.55;;
18754;SDS011;35061;47.664;9.166;2024-01-07T02:22:20;3.10;;;2.80;;
18754;SDS011;35061;47.664;9.166;2024-01-07T02:24:48;3.00;;;2.53;;
18754;SDS011;35061;47.664;9.166;2024-01-07T02:27:16;4.28;;;3.83;;
18754;SDS011;35061;47.664;9.166;2024-01-07T02:29:44;3.20;;;2.62;;
18754;SDS011;35061;47.664;9.166;2024-01-07T02:32:12;3.15;;;2.85;;
18754;SDS011;35061;47.664;9.166;2024-01-07T02:34:40;3.80;;;2.83;;
18754;SDS011;35061;47.664;9.166;2024-01-07T02:37:08;4.45;;;3.70;;
18754;SDS011;35061;47.664;9.166;2024-01-07T02:39:36;3.05;;;2.75;;
18754;SDS011;35061;47.664;9.166;2024-01-07T02:42:04;2.90;;;2.60;;
18754;SDS011;35061;47.664;9.166;2024-01-07T02:44:32;2.30;;;2.10;;
18754;SDS011;35061;47.664;9.166;2024-01-07T02:47:00;3.08;;;2.67;;
18754;SDS011;35061;47.664;9.166;2024-01-07T02:49:28;3.65;;;2.92;;
18754;SDS011;35061;47.664;9.166;2024-01-07T02:51:56;3.55;;;2.78;;
18754;SDS011;35061;47.664;9.166;2024-01-07T02:54:24;2.83;;;2.62;;
18754;SDS011;35061;47.664;9.166;2024-01-07T02:56:52;3.67;;;2.72;;
18754;SDS011;35061;47.664;9.166;2024-01-07T02:59:20;3.40;;;2.67;;
18754;SDS011;35061;47.664;9.166;2024-01-07T03:01:48;2.47;;;2.28;;
18754;SDS011;35061;47.664;9.166;2024-01-07T03:04:16;3.65;;;2.85;;
18754;SDS011;35061;47.664;9.166;2024-01-07T03:06:44;3.87;;;2.97;;
18754;SDS011;35061;47.664;9.166;2024-01-07T03:09:12;4.40;;;3.92;;
18754;SDS011;35061;47.664;9.166;2024-01-07T03:11:40;4.32;;;3.50;;
18754;SDS011;35061;47.664;9.166;2024-01-07T03:14:09;3.75;;;3.28;;
18754;SDS011;35061;47.664;9.166;2024-01-07T03:16:37;3.42;;;3.12;;
18754;SDS011;35061;47.664;9.166;2024-01-07T03:19:05;4.18;;;2.90;;
18754;SDS011;35061;47.664;9.166;2024-01-07T03:21:34;3.97;;;2.95;;
18754;SDS011;35061;47.664;9.166;2024-01-07T03:24:02;4.15;;;3.55;;
18754;SDS011;35061;47.664;9.166;2024-01-07T03:26:30;3.22;;;2.92;;
18754;SDS011;35061;47.664;9.166;2024-01-07T03:29:01;6.25;;;4.53;;
18754;SDS011;35061;47.664;9.166;2024-01-07T03:31:29;3.20;;;2.87;;
18754;SDS011;35061;47.664;9.166;2024-01-07T03:33:58;3.40;;;2.92;;
18754;SDS011;35061;47.664;9.166;2024-01-07T03:36:26;3.50;;;2.85;;
18754;SDS011;35061;47.664;9.166;2024-01-07T03:38:54;3.78;;;3.10;;
18754;SDS011;35061;47.664;9.166;2024-01-07T03:41:22;4.05;;;3.37;;
18754;SDS011;35061;47.664;9.166;2024-01-07T03:43:50;4.47;;;3.20;;
18754;SDS011;35061;47.664;9.166;2024-01-07T03:46:18;5.35;;;3.08;;
18754;SDS011;35061;47.664;9.166;2024-01-07T03:48:46;4.25;;;3.30;;
18754;SDS011;35061;47.664;9.166;2024-01-07T03:51:14;4.30;;;3.20;;
18754;SDS011;35061;47.664;9.166;2024-01-07T03:53:42;4.50;;;3.30;;
18754;SDS011;35061;47.664;9.166;2024-01-07T03:56:10;3.37;;;2.78;;
18754;SDS011;35061;47.664;9.166;2024-01-07T03:58:38;3.37;;;3.03;;
18754;SDS011;35061;47.664;9.166;2024-01-07T04:01:06;3.85;;;3.05;;
18754;SDS011;35061;47.664;9.166;2024-01-07T04:03:34;3.15;;;2.85;;
18754;SDS011;35061;47.664;9.166;2024-01-07T04:06:06;3.70;;;3.28;;
18754;SDS011;35061;47.664;9.166;2024-01-07T04:08:34;3.12;;;2.62;;
18754;SDS011;35061;47.664;9.166;2024-01-07T04:11:02;4.62;;;2.95;;
18754;SDS011;35061;47.664;9.166;2024-01-07T04:13:31;3.58;;;2.45;;
18754;SDS011;35061;47.664;9.166;2024-01-07T04:15:59;3.45;;;2.92;;
18754;SDS011;35061;47.664;9.166;2024-01-07T04:18:27;3.05;;;2.42;;
18754;SDS011;35061;47.664;9.166;2024-01-07T04:20:55;2.97;;;2.40;;
18754;SDS011;35061;47.664;9.166;2024-01-07T04:23:23;2.75;;;2.28;;
18754;SDS011;35061;47.664;9.166;2024-01-07T04:25:51;2.12;;;2.00;;
18754;SDS011;35061;47.664;9.166;2024-01-07T04:28:19;3.17;;;2.12;;
18754;SDS011;35061;47.664;9.166;2024-01-07T04:30:47;2.78;;;2.58;;
18754;SDS011;35061;47.664;9.166;2024-01-07T04:33:16;2.58;;;2.35;;
18754;SDS011;35061;47.664;9.166;2024-01-07T04:35:44;2.28;;;2.08;;
18754;SDS011;35061;47.664;9.166;2024-01-07T04:38:12;3.28;;;2.40;;
18754;SDS011;35061;47.664;9.166;2024-01-07T04:40:40;2.50;;;2.20;;
18754;SDS011;35061;47.664;9.166;2024-01-07T04:43:08;2.78;;;2.42;;
18754;SDS011;35061;47.664;9.166;2024-01-07T04:45:36;2.35;;;2.15;;
18754;SDS011;35061;47.664;9.166;2024-01-07T04:48:04;2.22;;;2.03;;
18754;SDS011;35061;47.664;9.166;2024-01-07T04:50:33;2.87;;;2.40;;
18754;SDS011;35061;47.664;9.166;2024-01-07T04:53:01;3.05;;;2.67;;
18754;SDS011;35061;47.664;9.166;2024-01-07T04:55:29;3.55;;;2.60;;
18754;SDS011;35061;47.664;9.166;2024-01-07T04:57:57;2.97;;;2.60;;
18754;SDS011;35061;47.664;9.166;2024-01-07T05:00:26;3.08;;;2.42;;
18754;SDS011;35061;47.664;9.166;2024-01-07T05:02:54;2.37;;;2.17;;
18754;SDS011;35061;47.664;9.166;2024-01-07T05:05:22;2.78;;;2.33;;
18754;SDS011;35061;47.664;9.166;2024-01-07T05:07:50;3.10;;;2.80;;
18754;SDS011;35061;47.664;9.166;2024-01-07T05:10:18;2.55;;;2.20;;
18754;SDS011;35061;47.664;9.166;2024-01-07T05:12:46;3.03;;;2.58;;
18754;SDS011;35061;47.664;9.166;2024-01-07T05:15:14;2.40;;;2.20;;
18754;SDS011;35061;47.664;9.166;2024-01-07T05:17:42;2.50;;;2.30;;
18754;SDS011;35061;47.664;9.166;2024-01-07T05:20:10;2.97;;;2.55;;
18754;SDS011;35061;47.664;9.166;2024-01-07T05:22:38;2.90;;;2.60;;
18754;SDS011;35061;47.664;9.166;2024-01-07T05:25:06;2.58;;;2.08;;
18754;SDS011;35061;47.664;9.166;2024-01-07T05:27:37;4.25;;;3.00;;
18754;SDS011;35061;47.664;9.166;2024-01-07T05:30:05;2.83;;;2.45;;
18754;SDS011;35061;47.664;9.166;2024-01-07T05:32:35;2.92;;;2.28;;
18754;SDS011;35061;47.664;9.166;2024-01-07T05:35:03;4.30;;;3.10;;
18754;SDS011;35061;47.664;9.166;2024-01-07T05:37:32;2.70;;;2.10;;
18754;SDS011;35061;47.664;9.166;2024-01-07T05:40:02;2.50;;;2.30;;
18754;SDS011;35061;47.664;9.166;2024-01-07T05:42:31;2.62;;;2.20;;
18754;SDS011;35061;47.664;9.166;2024-01-07T05:44:59;2.40;;;2.20;;
18754;SDS011;35061;47.664;9.166;2024-01-07T05:47:26;3.40;;;3.10;;
18754;SDS011;35061;47.664;9.166;2024-01-07T05:49:55;3.35;;;3.00;;
18754;SDS011;35061;47.664;9.166;2024-01-07T05:52:23;3.90;;;3.20;;
18754;SDS011;35061;47.664;9.166;2024-01-07T05:54:51;3.22;;;2.67;;
18754;SDS011;35061;47.664;9.166;2024-01-07T05:57:19;4.30;;;2.95;;
18754;SDS011;35061;47.664;9.166;2024-01-07T05:59:47;2.65;;;2.45;;
18754;SDS011;35061;47.664;9.166;2024-01-07T06:02:20;4.28;;;3.30;;
18754;SDS011;35061;47.664;9.166;2024-01-07T06:04:50;2.97;;;2.67;;
18754;SDS011;35061;47.664;9.166;2024-01-07T06:07:18;3.85;;;2.75;;
18754;SDS011;35061;47.664;9.166;2024-01-07T06:09:46;2.80;;;2.53;;
18754;SDS011;35061;47.664;9.166;2024-01-07T06:12:19;3.22;;;2.90;;
18754;SDS011;35061;47.664;9.166;2024-01-07T06:14:47;3.33;;;2.60;;
18754;SDS011;35061;47.664;9.166;2024-01-07T06:17:15;4.50;;;3.10;;
18754;SDS011;35061;47.664;9.166;2024-01-07T06:19:42;3.90;;;2.90;;
18754;SDS011;35061;47.664;9.166;2024-01-07T06:22:11;3.42;;;3.05;;
18754;SDS011;35061;47.664;9.166;2024-01-07T06:24:39;4.00;;;2.78;;
18754;SDS011;35061;47.664;9.166;2024-01-07T06:27:07;3.00;;;2.70;;
18754;SDS011;35061;47.664;9.166;2024-01-07T06:29:35;3.03;;;2.65;;
18754;SDS011;35061;47.664;9.166;2024-01-07T06:32:03;3.22;;;2.92;;
18754;SDS011;35061;47.664;9.166;2024-01-07T06:34:31;2.78;;;2.55;;
18754;SDS011;35061;47.664;9.166;2024-01-07T06:37:00;3.85;;;3.25;;
18754;SDS011;35061;47.664;9.166;2024-01-07T06:39:28;4.30;;;3.30;;
18754;SDS011;35061;47.664;9.166;2024-01-07T06:41:57;3.55;;;2.70;;
18754;SDS011;35061;47.664;9.166;2024-01-07T06:44:25;3.83;;;3.45;;
18754;SDS011;35061;47.664;9.166;2024-01-07T06:46:52;3.62;;;2.55;;
18754;SDS011;35061;47.664;9.166;2024-01-07T06:49:20;3.50;;;2.55;;
18754;SDS011;35061;47.664;9.166;2024-01-07T06:51:49;3.67;;;3.25;;
18754;SDS011;35061;47.664;9.166;2024-01-07T06:54:17;3.22;;;2.62;;
18754;SDS011;35061;47.664;9.166;2024-01-07T06:56:44;3.15;;;2.72;;
18754;SDS011;35061;47.664;9.166;2024-01-07T06:59:12;3.35;;;2.75;;
18754;SDS011;35061;47.664;9.166;2024-01-07T07:01:41;3.70;;;3.08;;
18754;SDS011;35061;47.664;9.166;2024-01-07T07:04:09;4.00;;;3.60;;
18754;SDS011;35061;47.664;9.166;2024-01-07T07:06:37;3.60;;;3.30;;
18754;SDS011;35061;47.664;9.166;2024-01-07T07:09:05;3.53;;;3.15;;
18754;SDS011;35061;47.664;9.166;2024-01-07T07:11:33;3.35;;;3.05;;
18754;SDS011;35061;47.664;9.166;2024-01-07T07:14:01;4.47;;;3.12;;
18754;SDS011;35061;47.664;9.166;2024-01-07T07:16:29;3.35;;;3.05;;
18754;SDS011;35061;47.664;9.166;2024-01-07T07:18:57;3.75;;;3.17;;
18754;SDS011;35061;47.664;9.166;2024-01-07T07:21:25;4.68;;;3.70;;
18754;SDS011;35061;47.664;9.166;2024-01-07T07:23:54;3.03;;;2.65;;
18754;SDS011;35061;47.664;9.166;2024-01-07T07:26:22;4.28;;;3.42;;
18754;SDS011;35061;47.664;9.166;2024-01-07T07:28:50;3.60;;;2.87;;
18754;SDS011;35061;47.664;9.166;2024-01-07T07:31:18;3.60;;;3.28;;
18754;SDS011;35061;47.664;9.166;2024-01-07T07:33:47;3.67;;;2.80;;
18754;SDS011;35061;47.664;9.166;2024-01-07T07:36:15;3.35;;;3.05;;
18754;SDS011;35061;47.664;9.166;2024-01-07T07:38:47;3.15;;;2.72;;
18754;SDS011;35061;47.664;9.166;2024-01-07T07:41:14;2.70;;;2.50;;
18754;SDS011;35061;47.664;9.166;2024-01-07T07:43:42;2.92;;;2.58;;
18754;SDS011;35061;47.664;9.166;2024-01-07T07:46:10;2.42;;;2.20;;
18754;SDS011;35061;47.664;9.166;2024-01-07T07:48:39;2.65;;;2.30;;
18754;SDS011;35061;47.664;9.166;2024-01-07T07:51:07;3.35;;;2.50;;
18754;SDS011;35061;47.664;9.166;2024-01-07T07:53:37;2.87;;;2.50;;
18754;SDS011;35061;47.664;9.166;2024-01-07T07:56:07;4.03;;;3.62;;
18754;SDS011;35061;47.664;9.166;2024-01-07T07:58:36;2.85;;;2.42;;
18754;SDS011;35061;47.664;9.166;2024-01-07T08:01:04;3.42;;;2.45;;
18754;SDS011;35061;47.664;9.166;2024-01-07T08:03:32;2.58;;;2.37;;
18754;SDS011;35061;47.664;9.166;2024-01-07T08:06:00;2.95;;;2.62;;
18754;SDS011;35061;47.664;9.166;2024-01-07T08:08:28;5.43;;;2.90;;
18754;SDS011;35061;47.664;9.166;2024-01-07T08:10:56;3.08;;;2.58;;
18754;SDS011;35061;47.664;9.166;2024-01-07T08:13:24;3.45;;;3.10;;
18754;SDS011;35061;47.664;9.166;2024-01-07T08:15:52;2.80;;;2.60;;
18754;SDS011;35061;47.664;9.166;2024-01-07T08:18:20;4.30;;;2.70;;
18754;SDS011;35061;47.664;9.166;2024-01-07T08:20:51;3.08;;;2.40;;
18754;SDS011;35061;47.664;9.166;2024-01-07T08:23:19;3.53;;;3.22;;
18754;SDS011;35061;47.664;9.166;2024-01-07T08:25:48;4.93;;;2.97;;
18754;SDS011;35061;47.664;9.166;2024-01-07T08:28:16;2.45;;;2.25;;
18754;SDS011;35061;47.664;9.166;2024-01-07T08:30:45;3.55;;;3.15;;
18754;SDS011;35061;47.664;9.166;2024-01-07T08:33:13;3.35;;;2.53;;
18754;SDS011;35061;47.664;9.166;2024-01-07T08:35:41;3.15;;;2.78;;
18754;SDS011;35061;47.664;9.166;2024-01-07T08:38:09;3.60;;;2.60;;
18754;SDS011;35061;47.664;9.166;2024-01-07T08:40:38;3.20;;;2.90;;
18754;SDS011;35061;47.664;9.166;2024-01-07T08:43:08;3.17;;;2.87;;
18754;SDS011;35061;47.664;9.166;2024-01-07T08:45:36;3.37;;;3.08;;
18754;SDS011;35061;47.664;9.166;2024-01-07T08:48:04;2.92;;;2.62;;
18754;SDS011;35061;47.664;9.166;2024-01-07T08:50:33;2.95;;;2.75;;
18754;SDS011;35061;47.664;9.166;2024-01-07T08:53:01;3.00;;;2.60;;
18754;SDS011;35061;47.664;9.166;2024-01-07T08:55:31;4.00;;;3.25;;
18754;SDS011;35061;47.664;9.166;2024-01-07T08:57:59;3.67;;;3.33;;
18754;SDS011;35061;47.664;9.166;2024-01-07T09:00:28;3.17;;;2.87;;
18754;SDS011;35061;47.664;9.166;2024-01-07T09:02:59;3.97;;;3.47;;
18754;SDS011;35061;47.664;9.166;2024-01-07T09:05:27;3.70;;;3.00;;
18754;SDS011;35061;47.664;9.166;2024-01-07T09:07:55;3.83;;;3.30;;
18754;SDS011;35061;47.664;9.166;2024-01-07T09:10:23;3.67;;;3.25;;
18754;SDS011;35061;47.664;9.166;2024-01-07T09:12:52;3.08;;;2.83;;
18754;SDS011;35061;47.664;9.166;2024-01-07T09:15:21;3.20;;;2.75;;
18754;SDS011;35061;47.664;9.166;2024-01-07T09:17:49;4.32;;;3.22;;
18754;SDS011;35061;47.664;9.166;2024-01-07T09:20:17;3.08;;;2.78;;
18754;SDS011;35061;47.664;9.166;2024-01-07T09:22:45;2.65;;;2.25;;
18754;SDS011;35061;47.664;9.166;2024-01-07T09:25:13;3.85;;;2.62;;
18754;SDS011;35061;47.664;9.166;2024-01-07T09:27:41;3.65;;;2.83;;
18754;SDS011;35061;47.664;9.166;2024-01-07T09:30:10;3.30;;;2.78;;
18754;SDS011;35061;47.664;9.166;2024-01-07T09:32:42;3.28;;;2.97;;
18754;SDS011;35061;47.664;9.166;2024-01-07T09:35:10;3.35;;;2.72;;
18754;SDS011;35061;47.664;9.166;2024-01-07T09:37:38;3.22;;;2.92;;
18754;SDS011;35061;47.664;9.166;2024-01-07T09:40:06;3.67;;;3.30;;
18754;SDS011;35061;47.664;9.166;2024-01-07T09:42:34;3.28;;;2.97;;
18754;SDS011;35061;47.664;9.166;2024-01-07T09:45:03;3.35;;;2.97;;
18754;SDS011;35061;47.664;9.166;2024-01-07T09:47:32;4.62;;;3.20;;
18754;SDS011;35061;47.664;9.166;2024-01-07T09:50:00;3.67;;;3.30;;
18754;SDS011;35061;47.664;9.166;2024-01-07T09:52:28;3.00;;;2.67;;
18754;SDS011;35061;47.664;9.166;2024-01-07T09:55:00;3.47;;;3.17;;
18754;SDS011;35061;47.664;9.166;2024-01-07T09:57:31;3.00;;;2.67;;
18754;SDS011;35061;47.664;9.166;2024-01-07T10:00:01;2.72;;;2.42;;
18754;SDS011;35061;47.664;9.166;2024-01-07T10:02:29;2.92;;;2.70;;
18754;SDS011;35061;47.664;9.166;2024-01-07T10:04:57;2.47;;;2.20;;
18754;SDS011;35061;47.664;9.166;2024-01-07T10:07:25;2.80;;;2.60;;
18754;SDS011;35061;47.664;9.166;2024-01-07T10:09:54;2.75;;;2.53;;
18754;SDS011;35061;47.664;9.166;2024-01-07T10:12:23;2.80;;;2.60;;
18754;SDS011;35061;47.664;9.166;2024-01-07T10:14:52;2.90;;;2.62;;
18754;SDS011;35061;47.664;9.166;2024-01-07T10:17:20;2.60;;;2.40;;
18754;SDS011;35061;47.664;9.166;2024-01-07T10:19:51;3.28;;;2.70;;
18754;SDS011;35061;47.664;9.166;2024-01-07T10:22:19;3.95;;;2.80;;
18754;SDS011;35061;47.664;9.166;2024-01-07T10:24:47;2.72;;;2.50;;
18754;SDS011;35061;47.664;9.166;2024-01-07T10:27:16;2.78;;;2.50;;
18754;SDS011;35061;47.664;9.166;2024-01-07T10:29:46;2.62;;;2.42;;
18754;SDS011;35061;47.664;9.166;2024-01-07T10:32:18;2.80;;;2.55;;
18754;SDS011;35061;47.664;9.166;2024-01-07T10:34:47;3.20;;;2.58;;
18754;SDS011;35061;47.664;9.166;2024-01-07T10:37:16;3.00;;;2.72;;
18754;SDS011;35061;47.664;9.166;2024-01-07T10:39:44;2.67;;;2.47;;
18754;SDS011;35061;47.664;9.166;2024-01-07T10:42:20;3.03;;;2.72;;
18754;SDS011;35061;47.664;9.166;2024-01-07T10:44:48;3.65;;;2.45;;
18754;SDS011;35061;47.664;9.166;2024-01-07T10:47:16;2.60;;;2.40;;
18754;SDS011;35061;47.664;9.166;2024-01-07T10:49:48;2.58;;;2.33;;
18754;SDS011;35061;47.664;9.166;2024-01-07T10:52:18;3.65;;;3.22;;
18754;SDS011;35061;47.664;9.166;2024-01-07T10:54:47;3.17;;;2.83;;
18754;SDS011;35061;47.664;9.166;2024-01-07T10:57:19;3.35;;;2.80;;
18754;SDS011;35061;47.664;9.166;2024-01-07T10:59:55;3.08;;;2.78;;
18754;SDS011;35061;47.664;9.166;2024-01-07T11:02:24;3.25;;;2.83;;
18754;SDS011;35061;47.664;9.166;2024-01-07T11:05:00;2.87;;;2.58;;
18754;SDS011;35061;47.664;9.166;2024-01-07T11:07:46;3.30;;;2.80;;
18754;SDS011;35061;47.664;9.166;2024-01-07T11:10:25;2.50;;;2.30;;
18754;SDS011;35061;47.664;9.166;2024-01-07T11:16:06;5.25;;;3.05;;
18754;SDS011;35061;47.664;9.166;2024-01-07T11:18:39;3.22;;;2.92;;
18754;SDS011;35061;47.664;9.166;2024-01-07T11:21:27;3.30;;;3.00;;
18754;SDS011;35061;47.664;9.166;2024-01-07T11:23:55;2.55;;;2.25;;
18754;SDS011;35061;47.664;9.166;2024-01-07T11:26:24;3.15;;;2.85;;
18754;SDS011;35061;47.664;9.166;2024-01-07T11:28:53;2.92;;;2.62;;
18754;SDS011;35061;47.664;9.166;2024-01-07T11:34:09;2.90;;;2.50;;
18754;SDS011;35061;47.664;9.166;2024-01-07T11:36:38;4.77;;;4.30;;
18754;SDS011;35061;47.664;9.166;2024-01-07T11:39:06;3.92;;;3.62;;
18754;SDS011;35061;47.664;9.166;2024-01-07T11:41:36;4.35;;;3.17;;
18754;SDS011;35061;47.664;9.166;2024-01-07T11:44:08;3.22;;;2.92;;
18754;SDS011;35061;47.664;9.166;2024-01-07T11:46:38;3.83;;;3.22;;
18754;SDS011;35061;47.664;9.166;2024-01-07T11:49:06;3.50;;;3.08;;
18754;SDS011;35061;47.664;9.166;2024-01-07T11:51:45;3.67;;;2.58;;
18754;SDS011;35061;47.664;9.166;2024-01-07T11:54:13;3.08;;;2.62;;
18754;SDS011;35061;47.664;9.166;2024-01-07T11:56:42;3.33;;;3.03;;
18754;SDS011;35061;47.664;9.166;2024-01-07T11:59:10;3.33;;;3.03;;
18754;SDS011;35061;47.664;9.166;2024-01-07T12:01:38;3.28;;;2.90;;
18754;SDS011;35061;47.664;9.166;2024-01-07T12:04:06;3.20;;;2.90;;
18754;SDS011;35061;47.664;9.166;2024-01-07T12:06:37;3.75;;;2.75;;
18754;SDS011;35061;47.664;9.166;2024-01-07T12:09:05;3.22;;;2.92;;
18754;SDS011;35061;47.664;9.166;2024-01-07T12:11:34;3.25;;;2.87;;
18754;SDS011;35061;47.664;9.166;2024-01-07T12:14:04;4.05;;;3.72;;
18754;SDS011;35061;47.664;9.166;2024-01-07T12:16:32;4.50;;;2.83;;
18754;SDS011;35061;47.664;9.166;2024-01-07T12:19:00;4.40;;;3.20;;
18754;SDS011;35061;47.664;9.166;2024-01-07T12:21:28;3.80;;;3.50;;
18754;SDS011;35061;47.664;9.166;2024-01-07T12:23:57;3.75;;;3.05;;
18754;SDS011;35061;47.664;9.166;2024-01-07T12:26:26;3.17;;;2.87;;
18754;SDS011;35061;47.664;9.166;2024-01-07T12:28:55;3.30;;;3.00;;
18754;SDS011;35061;47.664;9.166;2024-01-07T12:31:30;2.90;;;2.55;;
18754;SDS011;35061;47.664;9.166;2024-01-07T12:33:59;4.72;;;3.45;;
18754;SDS011;35061;47.664;9.166;2024-01-07T12:36:30;3.60;;;3.15;;
18754;SDS011;35061;47.664;9.166;2024-01-07T12:38:59;3.28;;;2.92;;
18754;SDS011;35061;47.664;9.166;2024-01-07T12:41:27;4.15;;;3.08;;
18754;SDS011;35061;47.664;9.166;2024-01-07T12:43:56;4.40;;;3.22;;
18754;SDS011;35061;47.664;9.166;2024-01-07T12:46:24;3.35;;;2.62;;
18754;SDS011;35061;47.664;9.166;2024-01-07T12:48:53;3.20;;;2.53;;
18754;SDS011;35061;47.664;9.166;2024-01-07T12:51:23;3.45;;;2.72;;
18754;SDS011;35061;47.664;9.166;2024-01-07T12:53:51;3.83;;;3.15;;
18754;SDS011;35061;47.664;9.166;2024-01-07T12:56:19;3.10;;;2.80;;
18754;SDS011;35061;47.664;9.166;2024-01-07T12:58:47;2.95;;;2.60;;
18754;SDS011;35061;47.664;9.166;2024-01-07T13:01:15;3.25;;;2.95;;
18754;SDS011;35061;47.664;9.166;2024-01-07T13:03:43;3.28;;;2.75;;
18754;SDS011;35061;47.664;9.166;2024-01-07T13:06:13;3.58;;;3.00;;
18754;SDS011;35061;47.664;9.166;2024-01-07T13:08:41;3.15;;;2.78;;
18754;SDS011;35061;47.664;9.166;2024-01-07T13:11:09;3.25;;;2.35;;
18754;SDS011;35061;47.664;9.166;2024-01-07T13:13:41;5.22;;;3.65;;
18754;SDS011;35061;47.664;9.166;2024-01-07T13:16:09;3.97;;;2.92;;
18754;SDS011;35061;47.664;9.166;2024-01-07T13:18:38;3.60;;;3.15;;
18754;SDS011;35061;47.664;9.166;2024-01-07T13:21:09;3.30;;;2.62;;
18754;SDS011;35061;47.664;9.166;2024-01-07T13:23:39;3.60;;;2.62;;
18754;SDS011;35061;47.664;9.166;2024-01-07T13:26:11;3.72;;;3.00;;
18754;SDS011;35061;47.664;9.166;2024-01-07T13:28:39;3.37;;;2.85;;
18754;SDS011;35061;47.664;9.166;2024-01-07T13:31:08;2.60;;;2.40;;
18754;SDS011;35061;47.664;9.166;2024-01-07T13:33:40;3.10;;;2.67;;
18754;SDS011;35061;47.664;9.166;2024-01-07T13:36:08;3.12;;;2.55;;
18754;SDS011;35061;47.664;9.166;2024-01-07T13:38:38;3.30;;;3.00;;
18754;SDS011;35061;47.664;9.166;2024-01-07T13:41:06;3.58;;;2.80;;
18754;SDS011;35061;47.664;9.166;2024-01-07T13:43:34;2.90;;;2.60;;
18754;SDS011;35061;47.664;9.166;2024-01-07T13:46:02;3.75;;;3.05;;
18754;SDS011;35061;47.664;9.166;2024-01-07T13:48:30;2.85;;;2.35;;
18754;SDS011;35061;47.664;9.166;2024-01-07T13:50:58;3.78;;;2.70;;
18754;SDS011;35061;47.664;9.166;2024-01-07T13:53:26;3.00;;;2.60;;
18754;SDS011;35061;47.664;9.166;2024-01-07T13:55:54;3.72;;;2.75;;
18754;SDS011;35061;47.664;9.166;2024-01-07T13:58:23;4.45;;;2.60;;
18754;SDS011;35061;47.664;9.166;2024-01-07T14:00:51;2.45;;;2.10;;
18754;SDS011;35061;47.664;9.166;2024-01-07T14:03:20;3.37;;;2.75;;
18754;SDS011;35061;47.664;9.166;2024-01-07T14:05:48;4.60;;;3.45;;
18754;SDS011;35061;47.664;9.166;2024-01-07T14:08:16;3.33;;;3.03;;
18754;SDS011;35061;47.664;9.166;2024-01-07T14:10:44;3.17;;;2.62;;
18754;SDS011;35061;47.664;9.166;2024-01-07T14:13:13;3.75;;;2.72;;
18754;SDS011;35061;47.664;9.166;2024-01-07T14:15:41;4.62;;;3.40;;
18754;SDS011;35061;47.664;9.166;2024-01-07T14:18:10;4.05;;;2.90;;
18754;SDS011;35061;47.664;9.166;2024-01-07T14:20:45;2.83;;;2.35;;
18754;SDS011;35061;47.664;9.166;2024-01-07T14:23:17;3.20;;;2.35;;
18754;SDS011;35061;47.664;9.166;2024-01-07T14:25:46;2.95;;;2.65;;
18754;SDS011;35061;47.664;9.166;2024-01-07T14:28:14;2.95;;;2.53;;
18754;SDS011;35061;47.664;9.166;2024-01-07T14:30:43;4.97;;;2.85;;
18754;SDS011;35061;47.664;9.166;2024-01-07T14:33:11;3.55;;;2.42;;
18754;SDS011;35061;47.664;9.166;2024-01-07T14:35:39;3.15;;;2.60;;
18754;SDS011;35061;47.664;9.166;2024-01-07T14:38:07;3.17;;;2.33;;
18754;SDS011;35061;47.664;9.166;2024-01-07T14:40:35;3.37;;;2.60;;
18754;SDS011;35061;47.664;9.166;2024-01-07T14:43:03;4.18;;;2.40;;
18754;SDS011;35061;47.664;9.166;2024-01-07T14:45:31;3.17;;;2.53;;
18754;SDS011;35061;47.664;9.166;2024-01-07T14:47:59;2.90;;;2.10;;
18754;SDS011;35061;47.664;9.166;2024-01-07T14:50:27;3.08;;;2.22;;
18754;SDS011;35061;47.664;9.166;2024-01-07T14:53:06;2.85;;;2.25;;
18754;SDS011;35061;47.664;9.166;2024-01-07T14:55:34;3.42;;;2.65;;
18754;SDS011;35061;47.664;9.166;2024-01-07T14:58:06;3.75;;;2.65;;
18754;SDS011;35061;47.664;9.166;2024-01-07T15:00:34;2.78;;;2.28;;
18754;SDS011;35061;47.664;9.166;2024-01-07T15:03:02;2.30;;;2.03;;